createdAt,value
2018-02-22T00:01:52.222Z,97.10
2018-02-22T00:04:22.381Z,97.00
2018-02-22T00:06:53.198Z,96.90
2018-02-22T00:09:24.603Z,96.90
2018-02-22T00:11:55.109Z,96.90
2018-02-22T00:14:25.271Z,96.80
2018-02-22T00:16:55.804Z,96.90
2018-02-22T00:19:26.267Z,96.90
2018-02-22T00:21:56.762Z,96.90
2018-02-22T00:24:27.225Z,97.00
2018-02-22T00:26:58.141Z,97.20
2018-02-22T00:29:28.691Z,97.30
2018-02-22T00:31:59.608Z,97.30
2018-02-22T00:34:30.301Z,97.40
2018-02-22T00:37:00.898Z,97.40
2018-02-22T00:39:31.299Z,97.40
2018-02-22T00:42:01.743Z,97.50
2018-02-22T00:44:32.128Z,97.50
2018-02-22T00:47:02.597Z,97.50
2018-02-22T00:49:33.024Z,97.40
2018-02-22T00:52:04.317Z,97.50
2018-02-22T00:54:34.808Z,97.50
2018-02-22T00:57:05.228Z,97.70
2018-02-22T00:59:35.445Z,97.60
2018-02-22T01:02:05.887Z,97.70
2018-02-22T01:04:36.279Z,97.70
2018-02-22T01:07:06.213Z,97.70
2018-02-22T01:09:36.617Z,97.80
2018-02-22T01:12:07.048Z,97.80
2018-02-22T01:14:37.406Z,97.80
2018-02-22T01:17:07.931Z,97.90
2018-02-22T01:19:38.945Z,97.90
2018-02-22T01:22:09.482Z,97.90
2018-02-22T01:24:39.894Z,98.00
2018-02-22T01:27:10.454Z,98.00
2018-02-22T01:29:40.876Z,97.90
2018-02-22T01:32:11.335Z,97.70
2018-02-22T01:34:41.820Z,97.50
2018-02-22T01:37:12.619Z,97.50
2018-02-22T01:39:43.062Z,97.30
2018-02-22T01:42:13.558Z,97.20
2018-02-22T01:44:43.939Z,97.20
2018-02-22T01:47:14.495Z,97.10
2018-02-22T01:49:44.857Z,97.10
2018-02-22T01:52:15.308Z,97.20
2018-02-22T01:54:45.403Z,97.10
2018-02-22T01:57:15.844Z,97.00
2018-02-22T01:59:46.255Z,97.00
2018-02-22T02:02:16.866Z,96.90
2018-02-22T02:04:47.333Z,97.10
2018-02-22T02:07:17.915Z,96.90
2018-02-22T02:09:48.455Z,96.90
2018-02-22T02:12:19.278Z,96.80
2018-02-22T02:14:49.458Z,96.80
2018-02-22T02:17:19.582Z,97.00
2018-02-22T02:19:49.441Z,97.10
2018-02-22T02:22:20.175Z,97.20
2018-02-22T02:24:50.438Z,97.40
2018-02-22T02:27:20.570Z,97.40
2018-02-22T02:29:50.930Z,97.40
2018-02-22T02:32:21.288Z,97.50
2018-02-22T02:34:51.712Z,97.70
2018-02-22T02:37:22.528Z,97.70
2018-02-22T02:39:52.964Z,97.80
2018-02-22T02:42:23.631Z,97.90
2018-02-22T02:44:54.050Z,98.00
2018-02-22T02:47:24.628Z,98.10
2018-02-22T02:49:55.116Z,98.20
2018-02-22T02:52:25.415Z,98.20
2018-02-22T02:54:55.652Z,98.30
2018-02-22T02:57:25.891Z,98.40
2018-02-22T02:59:56.321Z,98.50
2018-02-22T03:02:27.197Z,98.50
2018-02-22T03:04:57.781Z,98.50
2018-02-22T03:07:28.156Z,98.60
2018-02-22T03:09:58.519Z,98.60
2018-02-22T03:12:28.739Z,98.80
2018-02-22T03:14:59.226Z,98.70
2018-02-22T03:17:30.774Z,98.80
2018-02-22T03:20:01.227Z,98.80
2018-02-22T03:22:31.784Z,98.90
2018-02-22T03:25:02.010Z,99.20
2018-02-22T03:27:35.286Z,99.30
2018-02-22T03:30:05.521Z,99.10
2018-02-22T03:32:36.105Z,98.90
2018-02-22T03:35:06.544Z,99.00
2018-02-22T03:37:36.991Z,99.00
2018-02-22T03:40:07.441Z,99.10
2018-02-22T03:42:38.086Z,99.10
2018-02-22T03:45:08.518Z,99.20
2018-02-22T03:47:39.772Z,99.20
2018-02-22T03:50:10.137Z,99.40
2018-02-22T03:52:40.540Z,99.30
2018-02-22T03:55:10.976Z,99.70
2018-02-22T03:57:41.548Z,99.40
2018-02-22T04:00:11.934Z,99.40
2018-02-22T04:02:42.880Z,99.70
2018-02-22T04:05:13.259Z,99.90
2018-02-22T04:07:43.690Z,99.90
2018-02-22T04:10:14.642Z,99.90
2018-02-22T04:12:46.261Z,99.70
2018-02-22T04:15:16.647Z,99.70
2018-02-22T04:17:47.473Z,99.70
2018-02-22T04:20:17.693Z,99.80
2018-02-22T04:22:48.131Z,99.80
2018-02-22T04:25:18.618Z,99.80
2018-02-22T04:27:49.384Z,99.90
2018-02-22T04:30:19.819Z,99.90
2018-02-22T04:32:50.262Z,99.90
2018-02-22T04:35:20.655Z,99.90
2018-02-22T04:37:51.094Z,99.90
2018-02-22T04:40:21.431Z,99.90
2018-02-22T04:42:51.829Z,99.90
2018-02-22T04:45:21.941Z,99.90
2018-02-22T04:47:52.773Z,99.90
2018-02-22T04:50:23.212Z,99.90
2018-02-22T04:52:53.628Z,99.90
2018-02-22T04:55:24.045Z,99.90
2018-02-22T04:57:54.083Z,99.90
2018-02-22T05:00:24.593Z,99.90
2018-02-22T05:02:55.065Z,99.90
2018-02-22T05:05:25.480Z,99.90
2018-02-22T05:07:55.931Z,99.90
2018-02-22T05:10:26.560Z,99.90
2018-02-22T05:12:57.060Z,99.90
2018-02-22T05:15:28.228Z,99.90
2018-02-22T05:17:58.643Z,99.90
2018-02-22T05:20:29.070Z,99.90
2018-02-22T05:22:59.851Z,99.90
2018-02-22T05:25:30.330Z,99.90
2018-02-22T05:28:00.606Z,99.90
2018-02-22T05:30:30.876Z,99.90
2018-02-22T05:33:01.376Z,99.90
2018-02-22T05:35:31.894Z,99.90
2018-02-22T05:38:02.646Z,99.90
2018-02-22T05:40:33.083Z,99.90
2018-02-22T05:43:03.637Z,99.90
2018-02-22T05:45:34.105Z,99.90
2018-02-22T05:48:04.637Z,99.90
2018-02-22T05:50:34.976Z,99.90
2018-02-22T05:53:05.447Z,99.90
2018-02-22T05:55:35.618Z,99.90
2018-02-22T05:58:07.677Z,99.90
2018-02-22T06:00:38.063Z,99.90
2018-02-22T06:03:08.489Z,99.90
2018-02-22T06:05:38.885Z,99.90
2018-02-22T06:08:09.372Z,99.90
2018-02-22T06:10:39.723Z,99.90
2018-02-22T06:13:10.799Z,99.90
2018-02-22T06:15:40.888Z,99.90
2018-02-22T06:18:12.096Z,99.90
2018-02-22T06:20:42.544Z,99.90
2018-02-22T06:23:13.375Z,99.90
2018-02-22T06:25:43.937Z,99.90
2018-02-22T06:28:14.364Z,99.90
2018-02-22T06:30:44.814Z,99.70
2018-02-22T06:33:15.104Z,99.00
2018-02-22T06:35:45.532Z,98.50
2018-02-22T06:38:15.996Z,97.60
2018-02-22T06:40:46.489Z,97.80
2018-02-22T06:43:17.050Z,97.50
2018-02-22T06:45:47.555Z,97.20
2018-02-22T06:48:17.978Z,97.40
2018-02-22T06:50:48.513Z,97.50
2018-02-22T06:53:18.861Z,97.70
2018-02-22T06:55:49.366Z,98.00
2018-02-22T06:58:19.624Z,98.30
2018-02-22T07:00:50.055Z,97.50
2018-02-22T07:03:20.416Z,96.00
2018-02-22T07:05:50.797Z,94.80
2018-02-22T07:08:21.202Z,93.90
2018-02-22T07:10:51.452Z,91.20
2018-02-22T07:13:21.907Z,87.70
2018-02-22T07:15:52.252Z,84.90
2018-02-22T07:18:22.625Z,81.00
2018-02-22T07:20:53.028Z,77.00
2018-02-22T07:23:23.300Z,75.40
2018-02-22T07:25:53.766Z,73.00
2018-02-22T07:28:24.199Z,72.10
2018-02-22T07:30:54.612Z,71.80
2018-02-22T07:33:25.132Z,69.60
2018-02-22T07:35:55.416Z,68.30
2018-02-22T07:38:25.768Z,68.30
2018-02-22T07:40:56.361Z,65.20
2018-02-22T07:43:26.936Z,63.60
2018-02-22T07:45:57.413Z,62.90
2018-02-22T07:48:27.376Z,62.00
2018-02-22T07:50:57.812Z,61.40
2018-02-22T07:53:28.303Z,60.40
2018-02-22T07:55:59.429Z,59.80
2018-02-22T07:58:29.882Z,59.70
2018-02-22T08:01:00.164Z,58.00
2018-02-22T08:03:30.569Z,58.00
2018-02-22T08:06:01.702Z,60.90
2018-02-22T08:08:31.995Z,60.80
2018-02-22T08:11:02.769Z,61.70
2018-02-22T08:13:33.233Z,61.70
2018-02-22T08:16:03.539Z,60.40
2018-02-22T08:18:33.964Z,58.60
2018-02-22T08:21:04.248Z,57.60
2018-02-22T08:23:34.694Z,56.30
2018-02-22T08:26:04.686Z,55.70
2018-02-22T08:28:35.135Z,55.80
2018-02-22T08:31:05.595Z,54.00
2018-02-22T08:33:35.897Z,53.40
2018-02-22T08:36:06.510Z,53.20
2018-02-22T08:38:36.910Z,53.10
2018-02-22T08:41:07.165Z,52.40
2018-02-22T08:43:37.551Z,51.90
2018-02-22T08:46:08.073Z,51.50
2018-02-22T08:48:39.141Z,49.10
2018-02-22T08:51:09.725Z,49.10
2018-02-22T08:53:40.141Z,48.80
2018-02-22T08:56:10.438Z,48.60
2018-02-22T08:58:40.644Z,47.40
2018-02-22T09:01:10.758Z,47.80
2018-02-22T09:03:41.187Z,48.00
2018-02-22T09:06:11.731Z,46.90
2018-02-22T09:08:42.036Z,46.60
2018-02-22T09:11:12.464Z,45.40
2018-02-22T09:13:42.779Z,44.70
2018-02-22T09:16:13.229Z,44.00
2018-02-22T09:18:43.646Z,44.50
2018-02-22T09:21:13.956Z,44.80
2018-02-22T09:23:44.318Z,44.00
2018-02-22T09:26:14.729Z,42.70
2018-02-22T09:28:45.145Z,41.40
2018-02-22T09:31:15.425Z,40.30
2018-02-22T09:33:45.837Z,40.00
2018-02-22T09:36:16.206Z,40.10
2018-02-22T09:38:46.674Z,38.70
2018-02-22T09:41:17.179Z,38.90
2018-02-22T09:43:47.521Z,38.60
2018-02-22T09:46:18.046Z,38.10
2018-02-22T09:48:48.408Z,38.20
2018-02-22T09:51:18.727Z,39.00
2018-02-22T09:53:49.302Z,39.00
2018-02-22T09:56:19.674Z,37.90
2018-02-22T09:58:50.105Z,37.70
2018-02-22T10:01:20.585Z,39.00
2018-02-22T10:03:50.797Z,38.10
2018-02-22T10:06:20.940Z,38.60
2018-02-22T10:08:51.353Z,39.10
2018-02-22T10:11:22.030Z,38.70
2018-02-22T10:13:52.448Z,41.10
2018-02-22T10:16:22.952Z,39.50
2018-02-22T10:18:53.420Z,36.20
2018-02-22T10:21:24.017Z,35.20
2018-02-22T10:23:54.606Z,34.80
2018-02-22T10:26:25.256Z,34.20
2018-02-22T10:28:55.748Z,35.30
2018-02-22T10:31:26.203Z,36.90
2018-02-22T10:33:57.347Z,41.20
2018-02-22T10:36:27.941Z,41.20
2018-02-22T10:38:58.455Z,42.30
2018-02-22T10:41:28.867Z,41.20
2018-02-22T10:43:59.308Z,38.90
2018-02-22T10:46:30.980Z,39.50
2018-02-22T10:49:01.609Z,38.90
2018-02-22T10:51:32.789Z,37.60
2018-02-22T10:54:03.107Z,37.60
2018-02-22T10:56:34.358Z,36.50
2018-02-22T10:59:04.804Z,36.40
2018-02-22T11:01:40.791Z,36.60
2018-02-22T11:04:11.624Z,36.40
2018-02-22T11:06:41.987Z,37.60
2018-02-22T11:09:12.446Z,37.60
2018-02-22T11:11:43.765Z,37.90
2018-02-22T11:14:15.869Z,37.50
2018-02-22T11:16:46.275Z,37.50
2018-02-22T11:19:16.683Z,38.40
2018-02-22T11:21:47.163Z,39.10
2018-02-22T11:24:17.636Z,39.90
2018-02-22T11:26:48.002Z,40.70
2018-02-22T11:29:18.398Z,41.40
2018-02-22T11:31:49.190Z,46.40
2018-02-22T11:34:19.653Z,46.30
2018-02-22T11:36:50.082Z,49.30
2018-02-22T11:39:20.380Z,43.10
2018-02-22T11:41:50.783Z,42.40
2018-02-22T11:44:21.165Z,42.10
2018-02-22T11:46:51.437Z,40.40
2018-02-22T11:49:21.783Z,39.50
2018-02-22T11:51:52.038Z,37.90
2018-02-22T11:54:22.600Z,36.50
2018-02-22T11:56:53.103Z,35.30
2018-02-22T11:59:23.843Z,36.90
2018-02-22T12:01:54.259Z,39.50
2018-02-22T14:32:23.822Z,51.20
2018-02-22T14:34:54.335Z,51.20
2018-02-22T14:37:24.816Z,52.80
2018-02-22T14:39:55.089Z,53.50
2018-02-22T14:42:26.857Z,54.40
2018-02-22T14:44:57.308Z,54.80
2018-02-22T14:47:27.944Z,55.70
2018-02-22T14:49:59.215Z,53.90
2018-02-22T14:52:29.709Z,54.00
2018-02-22T14:55:00.791Z,53.80
2018-02-22T14:57:33.205Z,54.00
2018-02-22T15:00:05.225Z,54.30
2018-02-22T15:02:38.517Z,54.30
2018-02-22T15:05:08.985Z,54.80
2018-02-22T15:07:39.475Z,55.20
2018-02-22T15:10:10.004Z,55.80
2018-02-22T15:12:40.495Z,57.00
2018-02-22T15:15:11.044Z,56.60
2018-02-22T15:17:43.662Z,57.70
2018-02-22T15:20:15.088Z,58.40
2018-02-22T15:22:45.285Z,58.40
2018-02-22T15:25:15.493Z,59.80
2018-02-22T15:27:46.096Z,59.80
2018-02-22T15:30:16.458Z,59.30
2018-02-22T15:32:47.296Z,60.00
2018-02-22T15:35:17.401Z,59.40
2018-02-22T15:37:48.028Z,61.10
2018-02-22T15:40:19.339Z,60.60
2018-02-22T15:42:49.800Z,60.60
2018-02-22T15:45:20.246Z,62.20
2018-02-22T15:47:50.757Z,62.20
2018-02-22T15:50:21.047Z,63.00
2018-02-22T15:52:51.094Z,62.80
2018-02-22T15:55:24.240Z,62.80
2018-02-22T15:57:56.774Z,63.00
2018-02-22T16:00:27.418Z,63.00
2018-02-22T16:02:58.135Z,63.00
2018-02-22T16:05:29.073Z,62.00
2018-02-22T16:08:00.336Z,63.40
2018-02-22T16:10:30.580Z,64.00
2018-02-22T16:13:00.669Z,64.80
2018-02-22T16:15:31.304Z,65.80
2018-02-22T16:18:01.879Z,66.60
2018-02-22T16:20:32.571Z,68.40
2018-02-22T16:23:03.487Z,68.30
2018-02-22T16:25:34.012Z,69.30
2018-02-22T16:28:04.416Z,70.00
2018-02-22T16:30:35.943Z,70.70
2018-02-22T16:33:06.931Z,72.10
2018-02-22T16:35:37.074Z,71.40
2018-02-22T16:38:07.588Z,72.20
2018-02-22T16:40:37.873Z,72.80
2018-02-22T16:43:09.275Z,72.80
2018-02-22T16:45:39.641Z,72.60
2018-02-22T16:48:10.268Z,73.50
2018-02-22T16:50:42.602Z,74.40
2018-02-22T16:53:14.208Z,75.10
2018-02-22T16:55:44.708Z,75.20
2018-02-22T16:58:15.440Z,74.90
2018-02-22T17:00:47.923Z,74.70
2018-02-22T17:03:21.008Z,75.10
2018-02-22T17:05:53.915Z,75.40
2018-02-22T17:08:24.394Z,75.30
2018-02-22T17:10:54.895Z,76.60
2018-02-22T17:13:26.098Z,75.90
2018-02-22T17:15:57.237Z,76.10
2018-02-22T17:18:27.428Z,76.10
2018-02-22T17:20:57.949Z,76.30
2018-02-22T17:23:28.799Z,76.60
2018-02-22T17:26:04.898Z,77.10
2018-02-22T17:28:40.846Z,77.20
2018-02-22T17:31:17.788Z,77.50
2018-02-22T17:33:48.250Z,77.90
2018-02-22T17:36:19.084Z,77.40
2018-02-22T17:39:00.435Z,77.40
2018-02-22T17:41:30.637Z,77.90
2018-02-22T17:44:00.896Z,78.70
2018-02-22T17:46:31.154Z,78.30
2018-02-22T17:49:01.549Z,78.30
2018-02-22T17:51:32.754Z,78.50
2018-02-22T17:54:03.210Z,78.90
2018-02-22T17:56:33.477Z,77.40
2018-02-22T17:59:03.530Z,77.50
2018-02-22T18:01:33.750Z,77.60
2018-02-22T18:04:04.984Z,78.00
2018-02-22T18:06:35.229Z,78.40
2018-02-22T18:09:05.083Z,78.70
2018-02-22T18:11:35.761Z,79.10
2018-02-22T18:14:06.488Z,79.10
2018-02-22T18:16:36.390Z,79.80
2018-02-22T18:19:06.862Z,79.70
2018-02-22T18:21:37.549Z,81.70
2018-02-22T18:24:07.972Z,81.30
2018-02-22T18:26:38.881Z,80.80
2018-02-22T18:29:10.058Z,82.20
2018-02-22T18:31:40.303Z,81.10
2018-02-22T18:34:10.695Z,81.40
2018-02-22T18:36:40.956Z,81.60
2018-02-22T18:39:17.234Z,81.70
2018-02-22T18:41:53.672Z,81.70
2018-02-22T18:44:30.078Z,81.20
2018-02-22T18:47:01.287Z,80.40
2018-02-22T18:49:31.275Z,80.00
2018-02-22T18:52:01.817Z,80.40
2018-02-22T18:54:32.302Z,80.10
2018-02-22T18:57:03.544Z,80.40
2018-02-22T18:59:34.027Z,79.30
2018-02-22T19:02:04.388Z,79.70
2018-02-22T19:04:34.386Z,79.60
2018-02-22T19:07:04.794Z,80.00
2018-02-22T19:09:35.221Z,80.50
2018-02-22T19:12:05.684Z,80.10
2018-02-22T19:14:36.175Z,80.20
2018-02-22T19:17:06.275Z,80.30
2018-02-22T19:19:36.750Z,80.20
2018-02-22T19:22:07.214Z,81.30
2018-02-22T19:24:38.304Z,81.50
2018-02-22T19:27:08.729Z,81.40
2018-02-22T19:29:39.957Z,81.80
2018-02-22T19:32:10.642Z,82.20
2018-02-22T19:34:41.299Z,82.00
2018-02-22T19:37:11.760Z,82.50
2018-02-22T19:39:41.923Z,82.90
2018-02-22T19:42:12.364Z,84.40
2018-02-22T19:44:43.790Z,81.30
2018-02-22T19:47:14.193Z,81.30
2018-02-22T19:49:44.757Z,81.20
2018-02-22T19:52:15.519Z,81.50
2018-02-22T19:54:46.020Z,81.60
2018-02-22T19:57:17.470Z,82.30
2018-02-22T19:59:47.876Z,82.30
2018-02-22T20:02:19.111Z,81.90
2018-02-22T20:04:49.770Z,81.70
2018-02-22T20:07:20.220Z,81.20
2018-02-22T20:09:50.625Z,82.00
2018-02-22T20:12:21.263Z,83.10
2018-02-22T20:14:51.690Z,83.50
2018-02-22T20:17:21.782Z,84.20
2018-02-22T20:19:53.305Z,84.40
2018-02-22T20:22:24.421Z,84.80
2018-02-22T20:24:54.751Z,85.00
2018-02-22T20:27:26.075Z,85.10
2018-02-22T20:29:56.352Z,85.00
2018-02-22T20:32:26.791Z,85.50
2018-02-22T20:34:57.154Z,84.00
2018-02-22T20:37:27.782Z,83.80
2018-02-22T20:39:58.223Z,83.60
2018-02-22T20:42:28.559Z,83.40
2018-02-22T20:44:58.771Z,83.30
2018-02-22T20:47:29.296Z,82.20
2018-02-22T20:49:59.246Z,81.90
2018-02-22T20:52:29.990Z,82.20
2018-02-22T20:55:01.094Z,81.40
2018-02-22T20:57:31.228Z,82.80
2018-02-22T21:00:03.337Z,83.50
2018-02-22T21:02:34.328Z,84.10
2018-02-22T21:05:04.524Z,85.10
2018-02-22T21:07:34.874Z,85.80
2018-02-22T21:10:05.072Z,85.90
2018-02-22T21:12:35.400Z,86.10
2018-02-22T21:15:05.523Z,86.40
2018-02-22T21:17:35.759Z,86.60
2018-02-22T21:20:05.517Z,86.80
2018-02-22T21:22:35.367Z,86.40
2018-02-22T21:25:05.936Z,86.10
2018-02-22T21:27:36.436Z,84.50
2018-02-22T21:30:07.142Z,83.30
2018-02-22T21:32:37.626Z,83.30
2018-02-22T21:35:08.150Z,81.30
2018-02-22T21:37:38.604Z,79.80
2018-02-22T21:40:09.028Z,78.30
2018-02-22T21:42:39.716Z,77.30
2018-02-22T21:45:10.151Z,76.80
2018-02-22T21:47:40.652Z,77.10
2018-02-22T21:50:11.036Z,76.30
2018-02-22T21:52:41.671Z,76.50
2018-02-22T21:55:12.132Z,76.80
2018-02-22T21:57:42.685Z,74.20
2018-02-22T22:00:13.195Z,73.50
2018-02-22T22:02:43.974Z,73.50
2018-02-22T22:05:14.354Z,73.40
2018-02-22T22:07:44.801Z,73.20
2018-02-22T22:10:15.912Z,73.10
2018-02-22T22:12:46.552Z,73.00
2018-02-22T22:15:17.295Z,72.70
2018-02-22T22:17:47.786Z,71.80
2018-02-22T22:20:18.305Z,71.70
2018-02-22T22:22:48.734Z,71.00
2018-02-22T22:25:19.208Z,69.50
2018-02-22T22:27:49.509Z,69.00
2018-02-22T22:30:19.655Z,69.60
2018-02-22T22:32:51.410Z,68.00
2018-02-22T22:35:23.589Z,67.20
2018-02-22T22:37:54.934Z,67.10
2018-02-22T22:40:26.071Z,65.30
2018-02-22T22:42:57.945Z,65.70
2018-02-22T22:45:28.778Z,65.50
2018-02-22T22:47:59.470Z,66.90
2018-02-22T22:50:29.975Z,65.60
2018-02-22T22:53:00.701Z,66.20
2018-02-22T22:55:31.172Z,64.70
2018-02-22T22:58:01.414Z,61.70
2018-02-22T23:00:32.458Z,62.90
2018-02-22T23:03:02.568Z,63.10
2018-02-22T23:05:32.769Z,64.20
2018-02-22T23:08:03.432Z,65.90
2018-02-22T23:10:33.849Z,66.50
2018-02-22T23:13:04.174Z,67.00
2018-02-22T23:15:34.597Z,68.00
2018-02-22T23:18:05.105Z,68.40
2018-02-22T23:20:35.451Z,69.10
2018-02-22T23:23:05.916Z,69.60
2018-02-22T23:25:36.164Z,70.00
2018-02-22T23:28:06.790Z,70.30
2018-02-22T23:30:37.035Z,70.00
2018-02-22T23:33:08.177Z,71.20
2018-02-22T23:35:38.090Z,72.00
2018-02-22T23:38:07.807Z,72.60
2018-02-22T23:43:46.778Z,73.60
2018-02-22T23:46:17.282Z,74.90
2018-02-22T23:48:47.593Z,75.70
2018-02-22T23:51:18.411Z,75.90
2018-02-22T23:53:49.072Z,76.00
2018-02-22T23:56:19.753Z,76.40
2018-02-22T23:58:50.362Z,77.40
